sensor_id;sensor_type;location;lat;lon;timestamp;temperature;humidity
8412;HTU21D;4243;49.296;11.348;2022-09-09T00:02:17;11.49;118.99
8412;HTU21D;4243;49.296;11.348;2022-09-09T00:04:58;11.47;118.99
8412;HTU21D;4243;49.296;11.348;2022-09-09T00:07:47;11.37;118.99
8412;HTU21D;4243;49.296;11.348;2022-09-09T00:15:48;11.42;118.99
8412;HTU21D;4243;49.296;11.348;2022-09-09T00:18:51;11.39;118.99
8412;HTU21D;4243;49.296;11.348;2022-09-09T00:21:52;11.32;118.99
8412;HTU21D;4243;49.296;11.348;2022-09-09T00:27:48;11.22;118.99
8412;HTU21D;4243;49.296;11.348;2022-09-09T00:30:23;11.16;118.99
8412;HTU21D;4243;49.296;11.348;2022-09-09T00:33:00;11.18;118.99
8412;HTU21D;4243;49.296;11.348;2022-09-09T00:35:37;11.19;118.99
8412;HTU21D;4243;49.296;11.348;2022-09-09T00:38:35;12.30;1.00
8412;HTU21D;4243;49.296;11.348;2022-09-09T00:38:37;11.15;118.99
8412;HTU21D;4243;49.296;11.348;2022-09-09T00:41:26;11.14;118.99
8412;HTU21D;4243;49.296;11.348;2022-09-09T00:50:06;12.20;1.00
8412;HTU21D;4243;49.296;11.348;2022-09-09T00:50:31;11.04;118.99
8412;HTU21D;4243;49.296;11.348;2022-09-09T00:55:57;11.11;118.99
8412;HTU21D;4243;49.296;11.348;2022-09-09T00:58:28;11.03;118.99
8412;HTU21D;4243;49.296;11.348;2022-09-09T01:00:57;11.04;118.99
8412;HTU21D;4243;49.296;11.348;2022-09-09T01:03:42;12.30;44.40
8412;HTU21D;4243;49.296;11.348;2022-09-09T01:06:37;10.96;118.99
8412;HTU21D;4243;49.296;11.348;2022-09-09T01:09:17;11.00;118.99
8412;HTU21D;4243;49.296;11.348;2022-09-09T01:12:17;11.04;118.99
8412;HTU21D;4243;49.296;11.348;2022-09-09T01:15:07;10.96;118.99
8412;HTU21D;4243;49.296;11.348;2022-09-09T01:17:56;12.40;94.30
8412;HTU21D;4243;49.296;11.348;2022-09-09T01:18:00;11.01;118.99
8412;HTU21D;4243;49.296;11.348;2022-09-09T01:21:05;11.03;118.99
8412;HTU21D;4243;49.296;11.348;2022-09-09T01:27:05;11.01;118.99
8412;HTU21D;4243;49.296;11.348;2022-09-09T01:29:34;10.99;118.99
8412;HTU21D;4243;49.296;11.348;2022-09-09T01:35:37;11.02;118.99
8412;HTU21D;4243;49.296;11.348;2022-09-09T01:38:09;11.09;118.99
8412;HTU21D;4243;49.296;11.348;2022-09-09T01:40:37;11.22;118.99
8412;HTU21D;4243;49.296;11.348;2022-09-09T01:43:06;11.37;118.99
8412;HTU21D;4243;49.296;11.348;2022-09-09T01:45:34;12.90;99.90
8412;HTU21D;4243;49.296;11.348;2022-09-09T01:45:35;11.37;118.99
8412;HTU21D;4243;49.296;11.348;2022-09-09T01:48:03;11.44;118.99
8412;HTU21D;4243;49.296;11.348;2022-09-09T01:50:41;11.54;118.99
8412;HTU21D;4243;49.296;11.348;2022-09-09T01:53:09;13.10;99.90
8412;HTU21D;4243;49.296;11.348;2022-09-09T01:53:09;11.64;118.99
8412;HTU21D;4243;49.296;11.348;2022-09-09T01:55:40;11.72;118.99
8412;HTU21D;4243;49.296;11.348;2022-09-09T02:01:27;11.90;118.99
8412;HTU21D;4243;49.296;11.348;2022-09-09T02:04:08;11.96;118.99
8412;HTU21D;4243;49.296;11.348;2022-09-09T02:06:46;12.02;118.99
8412;HTU21D;4243;49.296;11.348;2022-09-09T02:09:25;12.07;118.99
8412;HTU21D;4243;49.296;11.348;2022-09-09T02:12:10;12.13;118.99
8412;HTU21D;4243;49.296;11.348;2022-09-09T02:14:55;12.14;118.99
8412;HTU21D;4243;49.296;11.348;2022-09-09T02:17:31;13.80;99.90
8412;HTU21D;4243;49.296;11.348;2022-09-09T02:17:34;12.19;118.99
8412;HTU21D;4243;49.296;11.348;2022-09-09T02:20:12;12.25;118.99
8412;HTU21D;4243;49.296;11.348;2022-09-09T02:22:50;12.31;118.99
8412;HTU21D;4243;49.296;11.348;2022-09-09T02:25:22;12.34;118.99
8412;HTU21D;4243;49.296;11.348;2022-09-09T02:27:54;12.40;118.99
8412;HTU21D;4243;49.296;11.348;2022-09-09T02:30:22;12.37;118.99
8412;HTU21D;4243;49.296;11.348;2022-09-09T02:32:55;12.38;118.99
8412;HTU21D;4243;49.296;11.348;2022-09-09T02:35:33;12.48;118.99
8412;HTU21D;4243;49.296;11.348;2022-09-09T02:38:08;12.52;118.99
8412;HTU21D;4243;49.296;11.348;2022-09-09T02:40:40;12.52;118.99
8412;HTU21D;4243;49.296;11.348;2022-09-09T02:43:09;12.56;118.99
8412;HTU21D;4243;49.296;11.348;2022-09-09T02:45:45;12.58;118.99
8412;HTU21D;4243;49.296;11.348;2022-09-09T02:48:26;12.62;118.99
8412;HTU21D;4243;49.296;11.348;2022-09-09T02:51:35;12.74;118.99
8412;HTU21D;4243;49.296;11.348;2022-09-09T02:54:29;12.79;118.99
8412;HTU21D;4243;49.296;11.348;2022-09-09T02:57:11;12.84;118.99
8412;HTU21D;4243;49.296;11.348;2022-09-09T02:59:50;12.93;118.99
8412;HTU21D;4243;49.296;11.348;2022-09-09T03:02:19;13.02;118.99
8412;HTU21D;4243;49.296;11.348;2022-09-09T03:04:52;12.93;118.99
8412;HTU21D;4243;49.296;11.348;2022-09-09T03:07:20;12.87;118.99
8412;HTU21D;4243;49.296;11.348;2022-09-09T03:09:50;12.77;118.99
8412;HTU21D;4243;49.296;11.348;2022-09-09T03:12:17;12.66;118.99
8412;HTU21D;4243;49.296;11.348;2022-09-09T03:12:17;14.20;1.00
8412;HTU21D;4243;49.296;11.348;2022-09-09T03:14:44;12.60;118.99
8412;HTU21D;4243;49.296;11.348;2022-09-09T03:17:13;12.53;118.99
8412;HTU21D;4243;49.296;11.348;2022-09-09T03:19:48;12.51;118.99
8412;HTU21D;4243;49.296;11.348;2022-09-09T03:22:16;12.49;118.99
8412;HTU21D;4243;49.296;11.348;2022-09-09T03:24:44;12.45;118.99
8412;HTU21D;4243;49.296;11.348;2022-09-09T03:27:13;14.10;1.00
8412;HTU21D;4243;49.296;11.348;2022-09-09T03:27:13;12.43;118.99
8412;HTU21D;4243;49.296;11.348;2022-09-09T03:29:44;12.40;118.99
8412;HTU21D;4243;49.296;11.348;2022-09-09T03:32:17;12.38;118.99
8412;HTU21D;4243;49.296;11.348;2022-09-09T03:34:45;12.38;118.99
8412;HTU21D;4243;49.296;11.348;2022-09-09T03:37:15;12.42;118.99
8412;HTU21D;4243;49.296;11.348;2022-09-09T03:39:42;12.43;118.99
8412;HTU21D;4243;49.296;11.348;2022-09-09T03:42:13;12.44;118.99
8412;HTU21D;4243;49.296;11.348;2022-09-09T03:44:41;12.43;118.99
8412;HTU21D;4243;49.296;11.348;2022-09-09T03:47:09;12.48;118.99
8412;HTU21D;4243;49.296;11.348;2022-09-09T03:49:37;12.51;118.99
8412;HTU21D;4243;49.296;11.348;2022-09-09T03:52:05;12.52;118.99
8412;HTU21D;4243;49.296;11.348;2022-09-09T03:54:32;12.56;118.99
8412;HTU21D;4243;49.296;11.348;2022-09-09T03:56:59;12.59;118.99
8412;HTU21D;4243;49.296;11.348;2022-09-09T03:59:27;12.66;118.99
8412;HTU21D;4243;49.296;11.348;2022-09-09T04:01:55;12.66;118.99
8412;HTU21D;4243;49.296;11.348;2022-09-09T04:04:24;12.67;118.99
8412;HTU21D;4243;49.296;11.348;2022-09-09T04:06:53;12.69;118.99
8412;HTU21D;4243;49.296;11.348;2022-09-09T04:09:20;12.69;118.99
8412;HTU21D;4243;49.296;11.348;2022-09-09T04:09:20;14.20;1.00
8412;HTU21D;4243;49.296;11.348;2022-09-09T04:11:50;12.72;118.99
8412;HTU21D;4243;49.296;11.348;2022-09-09T04:14:17;12.78;118.99
8412;HTU21D;4243;49.296;11.348;2022-09-09T04:16:44;12.81;118.99
8412;HTU21D;4243;49.296;11.348;2022-09-09T04:16:44;14.20;1.00
8412;HTU21D;4243;49.296;11.348;2022-09-09T04:19:12;14.30;1.00
8412;HTU21D;4243;49.296;11.348;2022-09-09T04:19:13;12.79;118.99
8412;HTU21D;4243;49.296;11.348;2022-09-09T04:21:42;12.73;118.99
8412;HTU21D;4243;49.296;11.348;2022-09-09T04:24:09;12.70;118.99
8412;HTU21D;4243;49.296;11.348;2022-09-09T04:26:38;12.74;118.99
8412;HTU21D;4243;49.296;11.348;2022-09-09T04:29:05;12.79;118.99
8412;HTU21D;4243;49.296;11.348;2022-09-09T04:31:34;12.80;118.99
8412;HTU21D;4243;49.296;11.348;2022-09-09T04:34:02;12.77;118.99
8412;HTU21D;4243;49.296;11.348;2022-09-09T04:36:32;12.75;118.99
8412;HTU21D;4243;49.296;11.348;2022-09-09T04:36:32;14.30;99.90
8412;HTU21D;4243;49.296;11.348;2022-09-09T04:39:04;12.72;118.99
8412;HTU21D;4243;49.296;11.348;2022-09-09T04:41:31;12.63;118.99
8412;HTU21D;4243;49.296;11.348;2022-09-09T04:43:59;12.59;118.99
8412;HTU21D;4243;49.296;11.348;2022-09-09T04:46:28;12.50;118.99
8412;HTU21D;4243;49.296;11.348;2022-09-09T04:48:57;12.47;118.99
8412;HTU21D;4243;49.296;11.348;2022-09-09T04:51:28;12.38;118.99
8412;HTU21D;4243;49.296;11.348;2022-09-09T04:53:58;12.36;118.99
8412;HTU21D;4243;49.296;11.348;2022-09-09T04:56:26;12.33;118.99
8412;HTU21D;4243;49.296;11.348;2022-09-09T04:59:00;12.32;118.99
8412;HTU21D;4243;49.296;11.348;2022-09-09T05:01:50;12.35;118.99
8412;HTU21D;4243;49.296;11.348;2022-09-09T05:04:17;13.60;99.90
8412;HTU21D;4243;49.296;11.348;2022-09-09T05:04:17;12.37;118.99
8412;HTU21D;4243;49.296;11.348;2022-09-09T05:06:45;13.60;1.00
8412;HTU21D;4243;49.296;11.348;2022-09-09T05:06:46;12.41;118.99
8412;HTU21D;4243;49.296;11.348;2022-09-09T05:09:13;12.42;118.99
8412;HTU21D;4243;49.296;11.348;2022-09-09T05:09:13;13.60;1.00
8412;HTU21D;4243;49.296;11.348;2022-09-09T05:11:41;12.45;118.99
8412;HTU21D;4243;49.296;11.348;2022-09-09T05:14:15;12.43;118.99
8412;HTU21D;4243;49.296;11.348;2022-09-09T05:14:15;13.60;99.90
8412;HTU21D;4243;49.296;11.348;2022-09-09T05:16:45;12.41;118.99
8412;HTU21D;4243;49.296;11.348;2022-09-09T05:19:14;12.42;118.99
8412;HTU21D;4243;49.296;11.348;2022-09-09T05:21:44;12.42;118.99
8412;HTU21D;4243;49.296;11.348;2022-09-09T05:24:14;12.42;118.99
8412;HTU21D;4243;49.296;11.348;2022-09-09T05:26:42;12.52;118.99
8412;HTU21D;4243;49.296;11.348;2022-09-09T05:29:11;12.66;118.99
8412;HTU21D;4243;49.296;11.348;2022-09-09T05:31:38;12.71;118.99
8412;HTU21D;4243;49.296;11.348;2022-09-09T05:34:10;12.87;118.99
8412;HTU21D;4243;49.296;11.348;2022-09-09T05:36:39;12.96;118.99
8412;HTU21D;4243;49.296;11.348;2022-09-09T05:39:06;13.11;118.99
8412;HTU21D;4243;49.296;11.348;2022-09-09T05:41:34;13.24;118.99
8412;HTU21D;4243;49.296;11.348;2022-09-09T05:44:03;13.50;118.99
8412;HTU21D;4243;49.296;11.348;2022-09-09T05:46:35;13.67;118.99
8412;HTU21D;4243;49.296;11.348;2022-09-09T05:49:03;13.88;118.99
8412;HTU21D;4243;49.296;11.348;2022-09-09T05:51:33;15.50;1.00
8412;HTU21D;4243;49.296;11.348;2022-09-09T05:51:33;14.12;118.99
8412;HTU21D;4243;49.296;11.348;2022-09-09T05:54:09;14.35;118.99
8412;HTU21D;4243;49.296;11.348;2022-09-09T05:56:41;14.49;118.99
8412;HTU21D;4243;49.296;11.348;2022-09-09T05:56:41;16.00;1.00
8412;HTU21D;4243;49.296;11.348;2022-09-09T05:59:08;16.10;1.00
8412;HTU21D;4243;49.296;11.348;2022-09-09T05:59:09;14.70;118.99
8412;HTU21D;4243;49.296;11.348;2022-09-09T06:01:38;14.81;118.99
8412;HTU21D;4243;49.296;11.348;2022-09-09T06:04:09;14.91;118.99
8412;HTU21D;4243;49.296;11.348;2022-09-09T06:06:38;16.30;99.90
8412;HTU21D;4243;49.296;11.348;2022-09-09T06:06:38;15.10;118.99
8412;HTU21D;4243;49.296;11.348;2022-09-09T06:09:12;15.18;118.99
8412;HTU21D;4243;49.296;11.348;2022-09-09T06:11:42;15.23;118.99
8412;HTU21D;4243;49.296;11.348;2022-09-09T06:14:11;15.19;118.99
8412;HTU21D;4243;49.296;11.348;2022-09-09T06:16:39;16.20;1.00
8412;HTU21D;4243;49.296;11.348;2022-09-09T06:16:39;15.25;118.99
8412;HTU21D;4243;49.296;11.348;2022-09-09T06:19:15;15.30;118.99
8412;HTU21D;4243;49.296;11.348;2022-09-09T06:19:15;16.10;79.40
8412;HTU21D;4243;49.296;11.348;2022-09-09T06:21:42;15.43;118.99
8412;HTU21D;4243;49.296;11.348;2022-09-09T06:24:12;15.56;118.99
8412;HTU21D;4243;49.296;11.348;2022-09-09T06:26:41;15.55;118.99
8412;HTU21D;4243;49.296;11.348;2022-09-09T06:29:11;15.65;118.99
8412;HTU21D;4243;49.296;11.348;2022-09-09T06:31:41;15.65;118.99
8412;HTU21D;4243;49.296;11.348;2022-09-09T06:34:23;15.74;118.99
8412;HTU21D;4243;49.296;11.348;2022-09-09T06:36:54;15.88;118.99
8412;HTU21D;4243;49.296;11.348;2022-09-09T06:39:22;15.88;118.99
8412;HTU21D;4243;49.296;11.348;2022-09-09T06:41:50;15.92;118.99
8412;HTU21D;4243;49.296;11.348;2022-09-09T06:44:38;16.03;118.99
8412;HTU21D;4243;49.296;11.348;2022-09-09T06:47:10;15.97;118.99
8412;HTU21D;4243;49.296;11.348;2022-09-09T06:49:39;15.89;118.99
8412;HTU21D;4243;49.296;11.348;2022-09-09T06:52:09;15.85;118.99
8412;HTU21D;4243;49.296;11.348;2022-09-09T06:54:37;15.92;118.99
8412;HTU21D;4243;49.296;11.348;2022-09-09T06:57:05;15.98;118.99
8412;HTU21D;4243;49.296;11.348;2022-09-09T06:59:54;16.12;118.99
8412;HTU21D;4243;49.296;11.348;2022-09-09T07:02:22;16.22;118.99
8412;HTU21D;4243;49.296;11.348;2022-09-09T07:04:49;16.39;118.99
8412;HTU21D;4243;49.296;11.348;2022-09-09T07:07:18;16.57;118.99
8412;HTU21D;4243;49.296;11.348;2022-09-09T07:09:47;16.60;118.99
8412;HTU21D;4243;49.296;11.348;2022-09-09T07:12:15;16.70;99.90
8412;HTU21D;4243;49.296;11.348;2022-09-09T07:12:15;16.52;118.99
8412;HTU21D;4243;49.296;11.348;2022-09-09T07:14:49;16.70;99.90
8412;HTU21D;4243;49.296;11.348;2022-09-09T07:14:49;16.49;118.99
8412;HTU21D;4243;49.296;11.348;2022-09-09T07:17:16;16.62;118.99
8412;HTU21D;4243;49.296;11.348;2022-09-09T07:19:44;16.74;118.99
8412;HTU21D;4243;49.296;11.348;2022-09-09T07:22:11;17.06;118.99
8412;HTU21D;4243;49.296;11.348;2022-09-09T07:24:39;17.53;118.99
8412;HTU21D;4243;49.296;11.348;2022-09-09T07:27:07;17.90;118.99
8412;HTU21D;4243;49.296;11.348;2022-09-09T07:29:37;17.98;118.99
8412;HTU21D;4243;49.296;11.348;2022-09-09T07:32:05;17.95;118.99
8412;HTU21D;4243;49.296;11.348;2022-09-09T07:34:36;17.84;118.99
8412;HTU21D;4243;49.296;11.348;2022-09-09T07:37:06;17.74;118.99
8412;HTU21D;4243;49.296;11.348;2022-09-09T07:39:35;17.67;118.99
8412;HTU21D;4243;49.296;11.348;2022-09-09T07:39:35;17.30;99.90
8412;HTU21D;4243;49.296;11.348;2022-09-09T07:42:03;17.55;118.99
8412;HTU21D;4243;49.296;11.348;2022-09-09T07:44:32;17.52;118.99
8412;HTU21D;4243;49.296;11.348;2022-09-09T07:47:06;17.39;118.99
8412;HTU21D;4243;49.296;11.348;2022-09-09T07:49:39;17.36;118.99
8412;HTU21D;4243;49.296;11.348;2022-09-09T07:52:08;17.59;118.99
8412;HTU21D;4243;49.296;11.348;2022-09-09T07:54:38;17.80;118.99
8412;HTU21D;4243;49.296;11.348;2022-09-09T07:54:38;17.40;1.00
8412;HTU21D;4243;49.296;11.348;2022-09-09T07:57:05;17.60;1.00
8412;HTU21D;4243;49.296;11.348;2022-09-09T07:57:06;17.94;118.99
8412;HTU21D;4243;49.296;11.348;2022-09-09T07:59:35;18.11;118.99
8412;HTU21D;4243;49.296;11.348;2022-09-09T08:03:39;19.91;118.99
8412;HTU21D;4243;49.296;11.348;2022-09-09T08:06:08;21.80;118.99
8412;HTU21D;4243;49.296;11.348;2022-09-09T08:08:36;19.50;1.00
8412;HTU21D;4243;49.296;11.348;2022-09-09T08:08:36;22.32;118.99
8412;HTU21D;4243;49.296;11.348;2022-09-09T08:11:13;22.73;118.99
8412;HTU21D;4243;49.296;11.348;2022-09-09T08:13:43;23.81;118.99
8412;HTU21D;4243;49.296;11.348;2022-09-09T08:13:43;20.40;99.90
8412;HTU21D;4243;49.296;11.348;2022-09-09T08:16:17;24.72;118.99
8412;HTU21D;4243;49.296;11.348;2022-09-09T08:18:50;25.59;118.99
8412;HTU21D;4243;49.296;11.348;2022-09-09T08:21:23;25.94;118.99
8412;HTU21D;4243;49.296;11.348;2022-09-09T08:23:57;26.57;118.99
8412;HTU21D;4243;49.296;11.348;2022-09-09T08:26:28;22.10;1.00
8412;HTU21D;4243;49.296;11.348;2022-09-09T08:26:29;26.85;118.99
8412;HTU21D;4243;49.296;11.348;2022-09-09T08:29:06;27.67;118.99
8412;HTU21D;4243;49.296;11.348;2022-09-09T08:31:40;27.95;118.99
8412;HTU21D;4243;49.296;11.348;2022-09-09T08:34:11;28.28;118.99
8412;HTU21D;4243;49.296;11.348;2022-09-09T08:36:44;28.75;118.99
8412;HTU21D;4243;49.296;11.348;2022-09-09T08:36:44;22.50;99.90
8412;HTU21D;4243;49.296;11.348;2022-09-09T08:39:15;28.88;118.99
8412;HTU21D;4243;49.296;11.348;2022-09-09T08:45:04;29.51;118.99
8412;HTU21D;4243;49.296;11.348;2022-09-09T08:48:06;29.73;118.99
8412;HTU21D;4243;49.296;11.348;2022-09-09T08:50:40;28.47;118.99
8412;HTU21D;4243;49.296;11.348;2022-09-09T08:53:23;27.29;118.99
8412;HTU21D;4243;49.296;11.348;2022-09-09T08:56:03;28.32;118.99
8412;HTU21D;4243;49.296;11.348;2022-09-09T08:58:50;22.10;1.00
8412;HTU21D;4243;49.296;11.348;2022-09-09T08:58:51;27.86;118.99
8412;HTU21D;4243;49.296;11.348;2022-09-09T09:01:35;26.32;118.99
8412;HTU21D;4243;49.296;11.348;2022-09-09T09:10:50;23.55;118.99
8412;HTU21D;4243;49.296;11.348;2022-09-09T09:13:32;24.66;118.99
8412;HTU21D;4243;49.296;11.348;2022-09-09T09:16:48;26.48;118.99
8412;HTU21D;4243;49.296;11.348;2022-09-09T09:19:19;27.70;118.99
8412;HTU21D;4243;49.296;11.348;2022-09-09T09:21:54;29.50;118.99
8412;HTU21D;4243;49.296;11.348;2022-09-09T09:24:45;24.40;1.00
8412;HTU21D;4243;49.296;11.348;2022-09-09T09:24:53;30.67;118.99
8412;HTU21D;4243;49.296;11.348;2022-09-09T09:27:33;31.60;118.99
8412;HTU21D;4243;49.296;11.348;2022-09-09T09:30:15;32.57;118.99
8412;HTU21D;4243;49.296;11.348;2022-09-09T09:36:00;33.43;118.99
8412;HTU21D;4243;49.296;11.348;2022-09-09T09:38:29;33.27;118.99
8412;HTU21D;4243;49.296;11.348;2022-09-09T09:41:17;32.89;118.99
8412;HTU21D;4243;49.296;11.348;2022-09-09T09:44:26;33.09;118.99
8412;HTU21D;4243;49.296;11.348;2022-09-09T09:47:12;30.23;118.99
8412;HTU21D;4243;49.296;11.348;2022-09-09T09:49:56;23.00;90.60
8412;HTU21D;4243;49.296;11.348;2022-09-09T09:49:57;29.12;118.99
8412;HTU21D;4243;49.296;11.348;2022-09-09T09:52:32;28.59;118.99
8412;HTU21D;4243;49.296;11.348;2022-09-09T09:55:04;28.50;118.99
8412;HTU21D;4243;49.296;11.348;2022-09-09T09:57:34;23.10;5.60
8412;HTU21D;4243;49.296;11.348;2022-09-09T09:57:35;28.72;118.99
8412;HTU21D;4243;49.296;11.348;2022-09-09T10:00:20;29.93;118.99
8412;HTU21D;4243;49.296;11.348;2022-09-09T10:02:59;31.31;118.99
8412;HTU21D;4243;49.296;11.348;2022-09-09T10:05:30;31.58;118.99
8412;HTU21D;4243;49.296;11.348;2022-09-09T10:13:36;33.74;118.99
8412;HTU21D;4243;49.296;11.348;2022-09-09T10:19:33;34.16;118.99
8412;HTU21D;4243;49.296;11.348;2022-09-09T10:22:18;33.67;118.99
8412;HTU21D;4243;49.296;11.348;2022-09-09T10:25:14;31.04;118.99
8412;HTU21D;4243;49.296;11.348;2022-09-09T10:28:12;30.70;118.99
8412;HTU21D;4243;49.296;11.348;2022-09-09T10:33:50;29.45;118.99
8412;HTU21D;4243;49.296;11.348;2022-09-09T10:36:20;27.04;118.99
8412;HTU21D;4243;49.296;11.348;2022-09-09T10:39:19;25.77;118.99
8412;HTU21D;4243;49.296;11.348;2022-09-09T10:42:07;24.84;118.99
8412;HTU21D;4243;49.296;11.348;2022-09-09T10:47:46;24.97;118.99
8412;HTU21D;4243;49.296;11.348;2022-09-09T10:56:09;24.01;118.99
8412;HTU21D;4243;49.296;11.348;2022-09-09T10:58:48;23.45;118.99
8412;HTU21D;4243;49.296;11.348;2022-09-09T11:01:32;25.65;118.99
8412;HTU21D;4243;49.296;11.348;2022-09-09T11:04:19;27.80;118.99
8412;HTU21D;4243;49.296;11.348;2022-09-09T11:06:56;26.89;118.99
8412;HTU21D;4243;49.296;11.348;2022-09-09T11:06:56;22.80;99.90
8412;HTU21D;4243;49.296;11.348;2022-09-09T11:09:31;22.40;99.90
8412;HTU21D;4243;49.296;11.348;2022-09-09T11:09:33;25.72;118.99
8412;HTU21D;4243;49.296;11.348;2022-09-09T11:12:15;26.28;118.99
8412;HTU21D;4243;49.296;11.348;2022-09-09T11:14:50;22.20;99.90
8412;HTU21D;4243;49.296;11.348;2022-09-09T11:14:55;25.44;118.99
8412;HTU21D;4243;49.296;11.348;2022-09-09T11:17:48;24.40;118.99
8412;HTU21D;4243;49.296;11.348;2022-09-09T11:20:17;23.70;118.99
8412;HTU21D;4243;49.296;11.348;2022-09-09T11:25:37;26.23;118.99
8412;HTU21D;4243;49.296;11.348;2022-09-09T11:29:15;28.13;118.99
8412;HTU21D;4243;49.296;11.348;2022-09-09T11:31:59;27.17;118.99
8412;HTU21D;4243;49.296;11.348;2022-09-09T11:34:46;25.95;118.99
8412;HTU21D;4243;49.296;11.348;2022-09-09T11:37:47;24.64;118.99
8412;HTU21D;4243;49.296;11.348;2022-09-09T11:40:30;24.72;118.99
8412;HTU21D;4243;49.296;11.348;2022-09-09T11:43:10;23.58;118.99
8412;HTU21D;4243;49.296;11.348;2022-09-09T11:45:41;22.86;118.99
8412;HTU21D;4243;49.296;11.348;2022-09-09T11:48:30;23.31;118.99
8412;HTU21D;4243;49.296;11.348;2022-09-09T11:51:09;23.51;118.99
8412;HTU21D;4243;49.296;11.348;2022-09-09T11:53:58;23.74;118.99
8412;HTU21D;4243;49.296;11.348;2022-09-09T11:56:45;23.47;118.99
8412;HTU21D;4243;49.296;11.348;2022-09-09T11:59:30;22.00;99.90
8412;HTU21D;4243;49.296;11.348;2022-09-09T11:59:31;23.89;118.99
8412;HTU21D;4243;49.296;11.348;2022-09-09T12:02:02;25.48;118.99
8412;HTU21D;4243;49.296;11.348;2022-09-09T12:07:38;26.11;118.99
8412;HTU21D;4243;49.296;11.348;2022-09-09T12:10:35;23.40;99.90
8412;HTU21D;4243;49.296;11.348;2022-09-09T12:10:38;26.73;118.99
8412;HTU21D;4243;49.296;11.348;2022-09-09T12:13:18;26.66;118.99
8412;HTU21D;4243;49.296;11.348;2022-09-09T12:15:51;27.02;118.99
8412;HTU21D;4243;49.296;11.348;2022-09-09T12:18:34;27.41;118.99
8412;HTU21D;4243;49.296;11.348;2022-09-09T12:21:42;26.22;118.99
8412;HTU21D;4243;49.296;11.348;2022-09-09T12:27:26;25.96;118.99
8412;HTU21D;4243;49.296;11.348;2022-09-09T12:32:38;26.80;118.99
8412;HTU21D;4243;49.296;11.348;2022-09-09T12:35:21;27.08;118.99
8412;HTU21D;4243;49.296;11.348;2022-09-09T12:37:56;27.06;118.99
8412;HTU21D;4243;49.296;11.348;2022-09-09T12:40:31;27.24;118.99
8412;HTU21D;4243;49.296;11.348;2022-09-09T12:43:20;26.64;118.99
8412;HTU21D;4243;49.296;11.348;2022-09-09T12:45:51;26.75;118.99
8412;HTU21D;4243;49.296;11.348;2022-09-09T12:48:32;26.65;118.99
8412;HTU21D;4243;49.296;11.348;2022-09-09T12:51:07;27.24;118.99
8412;HTU21D;4243;49.296;11.348;2022-09-09T12:53:45;27.17;118.99
8412;HTU21D;4243;49.296;11.348;2022-09-09T12:56:21;26.90;118.99
8412;HTU21D;4243;49.296;11.348;2022-09-09T12:58:52;26.03;118.99
8412;HTU21D;4243;49.296;11.348;2022-09-09T13:01:24;25.17;118.99
8412;HTU21D;4243;49.296;11.348;2022-09-09T13:03:57;25.18;118.99
8412;HTU21D;4243;49.296;11.348;2022-09-09T13:06:27;25.15;118.99
8412;HTU21D;4243;49.296;11.348;2022-09-09T13:08:58;25.74;118.99
8412;HTU21D;4243;49.296;11.348;2022-09-09T13:11:35;23.20;1.00
8412;HTU21D;4243;49.296;11.348;2022-09-09T13:11:41;25.71;118.99
8412;HTU21D;4243;49.296;11.348;2022-09-09T13:14:27;26.10;118.99
8412;HTU21D;4243;49.296;11.348;2022-09-09T13:17:01;26.18;118.99
8412;HTU21D;4243;49.296;11.348;2022-09-09T13:19:36;26.18;118.99
8412;HTU21D;4243;49.296;11.348;2022-09-09T13:22:20;26.63;118.99
8412;HTU21D;4243;49.296;11.348;2022-09-09T13:25:24;26.77;118.99
8412;HTU21D;4243;49.296;11.348;2022-09-09T13:28:00;27.36;118.99
8412;HTU21D;4243;49.296;11.348;2022-09-09T13:30:36;27.78;118.99
8412;HTU21D;4243;49.296;11.348;2022-09-09T13:35:55;23.00;1.00
8412;HTU21D;4243;49.296;11.348;2022-09-09T13:38:24;26.06;118.99
8412;HTU21D;4243;49.296;11.348;2022-09-09T13:41:05;25.47;118.99
8412;HTU21D;4243;49.296;11.348;2022-09-09T13:43:43;24.28;118.99
8412;HTU21D;4243;49.296;11.348;2022-09-09T13:46:30;23.38;118.99
8412;HTU21D;4243;49.296;11.348;2022-09-09T13:51:47;21.85;118.99
8412;HTU21D;4243;49.296;11.348;2022-09-09T13:54:19;21.33;118.99
8412;HTU21D;4243;49.296;11.348;2022-09-09T13:54:19;20.30;1.00
8412;HTU21D;4243;49.296;11.348;2022-09-09T13:56:47;20.96;118.99
8412;HTU21D;4243;49.296;11.348;2022-09-09T13:59:18;20.20;1.00
8412;HTU21D;4243;49.296;11.348;2022-09-09T13:59:19;20.75;118.99
8412;HTU21D;4243;49.296;11.348;2022-09-09T14:01:47;20.54;118.99
8412;HTU21D;4243;49.296;11.348;2022-09-09T14:04:16;20.45;118.99
8412;HTU21D;4243;49.296;11.348;2022-09-09T14:06:44;20.25;118.99
8412;HTU21D;4243;49.296;11.348;2022-09-09T14:09:14;19.76;118.99
8412;HTU21D;4243;49.296;11.348;2022-09-09T14:11:43;18.97;118.99
8412;HTU21D;4243;49.296;11.348;2022-09-09T14:14:12;18.19;118.99
8412;HTU21D;4243;49.296;11.348;2022-09-09T14:16:40;17.61;118.99
8412;HTU21D;4243;49.296;11.348;2022-09-09T14:19:08;17.08;118.99
8412;HTU21D;4243;49.296;11.348;2022-09-09T14:19:08;16.60;99.90
8412;HTU21D;4243;49.296;11.348;2022-09-09T14:21:36;16.74;118.99
8412;HTU21D;4243;49.296;11.348;2022-09-09T14:24:04;16.94;118.99
8412;HTU21D;4243;49.296;11.348;2022-09-09T14:26:32;17.85;118.99
8412;HTU21D;4243;49.296;11.348;2022-09-09T14:28:59;18.84;118.99
8412;HTU21D;4243;49.296;11.348;2022-09-09T14:31:28;19.36;118.99
8412;HTU21D;4243;49.296;11.348;2022-09-09T14:33:56;19.56;118.99
8412;HTU21D;4243;49.296;11.348;2022-09-09T14:36:23;19.91;118.99
8412;HTU21D;4243;49.296;11.348;2022-09-09T14:38:51;20.11;118.99
8412;HTU21D;4243;49.296;11.348;2022-09-09T14:41:20;20.44;118.99
8412;HTU21D;4243;49.296;11.348;2022-09-09T14:43:49;21.04;118.99
8412;HTU21D;4243;49.296;11.348;2022-09-09T14:46:19;21.24;118.99
8412;HTU21D;4243;49.296;11.348;2022-09-09T14:48:46;19.90;99.90
8412;HTU21D;4243;49.296;11.348;2022-09-09T14:48:46;21.15;118.99
8412;HTU21D;4243;49.296;11.348;2022-09-09T14:51:22;20.68;118.99
8412;HTU21D;4243;49.296;11.348;2022-09-09T14:53:58;19.99;118.99
8412;HTU21D;4243;49.296;11.348;2022-09-09T14:56:29;19.51;118.99
8412;HTU21D;4243;49.296;11.348;2022-09-09T14:58:58;19.11;118.99
8412;HTU21D;4243;49.296;11.348;2022-09-09T15:01:28;18.79;118.99
8412;HTU21D;4243;49.296;11.348;2022-09-09T15:03:59;18.51;118.99
8412;HTU21D;4243;49.296;11.348;2022-09-09T15:06:30;18.69;118.99
8412;HTU21D;4243;49.296;11.348;2022-09-09T15:09:00;19.23;118.99
8412;HTU21D;4243;49.296;11.348;2022-09-09T15:11:30;19.73;118.99
8412;HTU21D;4243;49.296;11.348;2022-09-09T15:14:01;20.10;118.99
8412;HTU21D;4243;49.296;11.348;2022-09-09T15:16:29;20.14;118.99
8412;HTU21D;4243;49.296;11.348;2022-09-09T15:18:59;20.13;118.99
8412;HTU21D;4243;49.296;11.348;2022-09-09T15:21:33;20.60;99.90
8412;HTU21D;4243;49.296;11.348;2022-09-09T15:21:34;20.28;118.99
8412;HTU21D;4243;49.296;11.348;2022-09-09T15:24:03;20.42;118.99
8412;HTU21D;4243;49.296;11.348;2022-09-09T15:26:31;20.61;118.99
8412;HTU21D;4243;49.296;11.348;2022-09-09T15:28:59;20.91;118.99
8412;HTU21D;4243;49.296;11.348;2022-09-09T15:31:31;21.29;118.99